BIO weather

Bilbao Airport
Bilbao, Basque Country, Spain

Public forecast

Using degrees Celsius for public forecast. Weather courtesy of forecast.io.

METAR (pilot weather report)

Retrieved 2019/03/23 10:00 UTC (7 minutes ago):

LEBB 231000Z VRB01KT CAVOK 17/05 Q1027 NOSIG

TAF (pilot weather forecast)

Retrieved 2019/03/23 06:27 UTC (4 hours ago):

TAF LEBB 230500Z 2306/2406 10006KT CAVOK TX22/2314Z TN05/2306Z BECMG 2312/2314 33009KT PROB40 2312/2317 04010KT BECMG 2318/2319 10004KT